Terminal Aerodrome Forecast
Issued by NWS

Home | Current Version | Previous Version | Text Only | Print | Product List | Glossary On
Versions: 1 2 3 4 5 6 7 8 9 10 11 12 13 14 15
954
FTUS44 KCRP 281735
TAFALI
TAF
KALI 281735Z 2818/2918 05008KT P6SM VCTS BKN035CB
     FM282200 10012G18KT P6SM SCT040
     FM290200 11005KT P6SM SCT025
     FM290900 17004KT P6SM BKN015
     FM291500 18010KT P6SM SCT035=

USA.gov is the U.S. government's official web portal to all federal, state and local government web resources and services.